David, David Enrique Malek International Airport (MPDA)

NameDavid Enrique Malek International Airport
CityDavid
CountryPanama
ICAOMPDA
IATADAV
Altitude27 m
CoordinatesGoogle Map
Live Air TrafficLiveATC.net
METARMPDA 202100Z 18007KT 9999 SCT018 29/24 Q1010
2019-11-20 21:00:00 Wind: South (180°) 3.6 m/s - Visibility: > 10000 m - Temperature: 29 °C - Dew point: 24 °C - Humidity: 74.5% - Pressure: 1010 hPa

Sorry, no flights used the airport in this database.